Time;durP1;ratioP1;P1;durP2;ratioP2;P2;SDS_P1;SDS_P2;PMS_P1;PMS_P2;Temp;Humidity;BMP_temperature;BMP_pressure;BME280_temperature;BME280_humidity;BME280_pressure;Samples;Min_cycle;Max_cycle;Signal;HPM_P1;HPM_P2
2021/07/15 00:01:06;;;;;;;71.18;40.53;;;18.80;99.90;;;;;;4162811;28;20078;-78
2021/07/15 00:03:10;;;;;;;62.03;41.33;;;18.80;99.90;;;;;;4162605;28;20026;-80
2021/07/15 00:05:13;;;;;;;65.03;40.63;;;18.90;99.90;;;;;;4162775;28;20105;-79
2021/07/15 00:07:15;;;;;;;71.60;43.30;;;18.80;99.90;;;;;;4162752;28;20428;-77
2021/07/15 00:09:16;;;;;;;73.63;42.17;;;18.70;99.90;;;;;;4161491;28;20042;-73
2021/07/15 00:11:17;;;;;;;71.10;45.35;;;18.70;99.90;;;;;;4162903;28;20030;-74
2021/07/15 00:13:18;;;;;;;86.03;48.67;;;18.70;99.90;;;;;;4163202;28;20060;-75
2021/07/15 00:15:22;;;;;;;85.28;45.25;;;18.70;99.90;;;;;;4163676;28;21108;-74
2021/07/15 00:17:22;;;;;;;76.57;45.45;;;18.70;99.90;;;;;;4166271;28;20037;-74
2021/07/15 00:19:25;;;;;;;90.65;47.00;;;18.70;99.90;;;;;;4165802;28;20025;-74
2021/07/15 00:21:27;;;;;;;81.90;45.45;;;18.60;99.90;;;;;;4165322;28;20109;-73
2021/07/15 00:23:27;;;;;;;80.00;44.60;;;18.70;99.90;;;;;;4164224;28;20120;-75
2021/07/15 00:25:28;;;;;;;85.95;47.22;;;18.70;99.90;;;;;;4166127;28;20469;-74
2021/07/15 00:27:28;;;;;;;79.82;44.40;;;18.70;99.90;;;;;;4165084;28;20045;-74
2021/07/15 00:29:29;;;;;;;83.45;46.17;;;18.70;99.90;;;;;;4165500;28;20064;-74
2021/07/15 00:31:30;;;;;;;80.93;43.60;;;18.70;99.90;;;;;;4164659;28;20025;-74
2021/07/15 00:33:31;;;;;;;64.20;36.95;;;18.70;99.90;;;;;;4164205;28;20642;-74
2021/07/15 00:35:33;;;;;;;78.63;42.67;;;18.70;99.90;;;;;;4165798;28;20056;-73
2021/07/15 00:37:34;;;;;;;70.43;41.85;;;18.70;99.90;;;;;;4165804;28;20477;-74
2021/07/15 00:39:35;;;;;;;76.13;43.85;;;18.70;99.90;;;;;;4164286;28;20184;-73
2021/07/15 00:41:36;;;;;;;70.07;41.58;;;18.70;99.90;;;;;;4164659;28;20051;-73
2021/07/15 00:43:36;;;;;;;75.35;42.88;;;18.70;99.90;;;;;;4164635;28;20152;-73
2021/07/15 00:45:37;;;;;;;69.07;43.55;;;18.70;99.90;;;;;;4163882;28;20087;-74
2021/07/15 00:47:38;;;;;;;77.32;43.60;;;18.60;99.90;;;;;;4161848;28;20025;-73
2021/07/15 00:49:39;;;;;;;72.60;42.35;;;18.60;99.90;;;;;;4164033;28;20038;-74
2021/07/15 00:51:39;;;;;;;81.53;42.50;;;18.60;99.90;;;;;;4165251;28;20107;-73
2021/07/15 00:53:40;;;;;;;74.80;45.30;;;18.60;99.90;;;;;;4165912;28;20034;-73
2021/07/15 00:55:42;;;;;;;74.03;43.40;;;18.60;99.90;;;;;;4163882;28;20122;-73
2021/07/15 00:57:45;;;;;;;77.80;42.30;;;18.60;99.90;;;;;;4164362;28;20036;-73
2021/07/15 00:59:47;;;;;;;73.37;41.83;;;18.70;99.90;;;;;;4163964;28;20067;-74
2021/07/15 01:01:48;;;;;;;64.72;38.25;;;18.60;99.90;;;;;;4164320;28;20124;-73
2021/07/15 01:03:50;;;;;;;69.03;40.05;;;18.70;99.90;;;;;;4160790;28;20079;-73
2021/07/15 01:05:54;;;;;;;66.82;40.53;;;18.60;99.90;;;;;;4162196;28;20032;-73
2021/07/15 01:07:54;;;;;;;86.15;42.75;;;18.60;99.90;;;;;;4162234;28;20117;-73
2021/07/15 01:09:55;;;;;;;66.45;39.83;;;18.60;99.90;;;;;;4163628;28;20543;-73
2021/07/15 01:12:34;;;;;;;61.88;36.08;;;18.50;99.90;;;;;;4163655;28;20063;-74
2021/07/15 01:14:46;;;;;;;65.00;35.97;;;18.60;99.90;;;;;;4162842;28;20097;-72
2021/07/15 01:17:08;;;;;;;66.30;36.23;;;18.60;99.90;;;;;;4174585;28;20033;-73
2021/07/15 01:19:39;;;;;;;62.15;34.47;;;18.50;99.90;;;;;;4163413;28;20372;-73
2021/07/15 01:22:05;;;;;;;66.85;35.95;;;18.50;99.90;;;;;;4150175;28;20034;-75
2021/07/15 01:24:16;;;;;;;47.92;29.27;;;18.60;99.90;;;;;;4164229;28;20056;-74
2021/07/15 01:26:41;;;;;;;56.40;31.83;;;18.60;99.90;;;;;;4164203;28;20030;-74
2021/07/15 01:29:17;;;;;;;71.53;35.08;;;18.50;99.90;;;;;;4144803;28;20036;-79
2021/07/15 01:31:18;;;;;;;47.45;28.42;;;18.50;99.90;;;;;;4164572;28;20040;-76
2021/07/15 01:33:22;;;;;;;59.60;34.38;;;18.50;99.90;;;;;;4161937;28;20501;-76
2021/07/15 01:35:36;;;;;;;59.67;34.75;;;18.40;99.90;;;;;;4156791;28;20022;-77
2021/07/15 01:37:38;;;;;;;52.65;29.15;;;18.40;99.90;;;;;;4161561;28;20488;-78
2021/07/15 01:39:41;;;;;;;50.70;26.20;;;18.40;99.90;;;;;;4164682;28;20346;-79
2021/07/15 01:41:46;;;;;;;;;;;18.40;99.90;;;;;;4165438;28;20034;-77
2021/07/15 01:43:51;;;;;;;45.42;27.40;;;18.40;99.90;;;;;;4163232;28;19909;-77
2021/07/15 01:45:52;;;;;;;50.10;28.52;;;18.40;99.90;;;;;;4164162;28;20048;-79
2021/07/15 01:47:53;;;;;;;51.67;29.15;;;18.40;99.90;;;;;;4167144;28;20037;-77
2021/07/15 01:49:58;;;;;;;46.72;27.05;;;18.40;99.90;;;;;;4174234;28;20033;-77
2021/07/15 01:52:01;;;;;;;45.97;28.25;;;18.50;99.90;;;;;;4163411;28;20056;-78
2021/07/15 01:54:02;;;;;;;47.40;29.75;;;18.40;99.90;;;;;;4161580;28;20038;-79
2021/07/15 01:56:04;;;;;;;44.83;28.60;;;18.40;99.90;;;;;;4163786;28;20107;-79
2021/07/15 01:58:07;;;;;;;50.00;30.77;;;18.40;99.90;;;;;;4164484;28;20053;-79
2021/07/15 02:00:08;;;;;;;;;;;18.40;99.90;;;;;;4164353;28;20042;-79
2021/07/15 02:02:09;;;;;;;45.70;24.33;;;18.40;99.90;;;;;;4162917;28;20649;-78
2021/07/15 02:04:12;;;;;;;59.47;33.13;;;18.30;99.90;;;;;;4156065;28;20477;-79
2021/07/15 02:06:14;;;;;;;62.20;34.45;;;18.40;99.90;;;;;;4164127;28;20359;-78
2021/07/15 02:08:15;;;;;;;54.45;30.05;;;18.40;99.90;;;;;;4176641;28;20055;-79
2021/07/15 02:10:20;;;;;;;67.40;35.50;;;18.40;99.90;;;;;;4164104;28;20056;-79
2021/07/15 02:12:21;;;;;;;57.78;34.40;;;18.40;99.90;;;;;;4162660;28;20037;-79
2021/07/15 02:14:24;;;;;;;57.72;33.22;;;18.40;99.90;;;;;;4163952;28;20039;-79
2021/07/15 02:16:25;;;;;;;63.35;33.63;;;18.40;99.90;;;;;;4162277;28;20040;-79
2021/07/15 02:18:27;;;;;;;64.70;31.98;;;18.40;99.90;;;;;;4163158;28;20026;-77
2021/07/15 02:20:29;;;;;;;67.18;35.63;;;18.40;99.90;;;;;;4161416;28;20435;-80
2021/07/15 02:22:30;;;;;;;58.40;33.37;;;18.30;99.90;;;;;;4162577;28;20040;-79
2021/07/15 02:24:33;;;;;;;65.30;33.67;;;18.40;99.90;;;;;;4162484;28;20733;-79
2021/07/15 02:26:36;;;;;;;66.80;33.78;;;18.40;99.90;;;;;;4162395;28;20209;-79
2021/07/15 02:28:36;;;;;;;50.88;32.85;;;18.40;99.90;;;;;;4162971;28;20032;-78
2021/07/15 02:30:37;;;;;;;60.17;28.85;;;18.40;99.90;;;;;;4163609;28;20425;-79
2021/07/15 02:32:39;;;;;;;66.50;33.65;;;18.40;99.90;;;;;;4163051;28;20029;-80
2021/07/15 02:34:48;;;;;;;50.22;29.02;;;18.40;99.90;;;;;;4163767;28;20029;-79
2021/07/15 02:36:50;;;;;;;58.20;30.33;;;18.40;99.90;;;;;;4164024;28;20029;-79
2021/07/15 02:38:52;;;;;;;51.90;30.98;;;18.40;99.90;;;;;;4162509;28;20389;-78
2021/07/15 02:40:53;;;;;;;57.70;31.40;;;18.40;99.90;;;;;;4146280;28;20102;-79
2021/07/15 02:42:53;;;;;;;54.33;27.52;;;18.40;99.90;;;;;;4153876;28;20072;-78
2021/07/15 02:44:54;;;;;;;54.15;30.20;;;18.40;99.90;;;;;;4155592;28;20034;-79
2021/07/15 02:46:55;;;;;;;43.22;26.73;;;18.30;99.90;;;;;;4146120;28;20180;-78
2021/07/15 02:48:57;;;;;;;48.72;26.58;;;18.30;99.90;;;;;;4152298;28;20446;-79
2021/07/15 02:50:58;;;;;;;41.20;26.25;;;18.30;99.90;;;;;;4161365;28;20444;-79
2021/07/15 02:52:59;;;;;;;43.45;25.45;;;18.30;99.90;;;;;;4163906;28;20029;-79
2021/07/15 02:55:00;;;;;;;40.67;24.23;;;18.30;99.90;;;;;;4163106;28;20045;-78
2021/07/15 02:57:25;;;;;;;39.88;23.17;;;18.30;99.90;;;;;;4163349;28;20378;-77
2021/07/15 02:59:41;;;;;;;41.85;23.05;;;18.30;99.90;;;;;;4162926;28;20078;-80
2021/07/15 03:01:56;;;;;;;48.40;24.00;;;18.30;99.90;;;;;;4163300;28;20034;-77
2021/07/15 03:04:14;;;;;;;53.10;27.25;;;18.30;99.90;;;;;;4143449;28;20488;-76
2021/07/15 03:06:39;;;;;;;49.20;28.45;;;18.20;99.90;;;;;;4162856;28;20045;-77
2021/07/15 03:09:01;;;;;;;50.35;28.65;;;18.20;99.90;;;;;;4178236;28;20544;-79
2021/07/15 03:11:04;;;;;;;64.72;32.17;;;18.20;99.90;;;;;;4163085;28;20033;-75
2021/07/15 03:13:10;;;;;;;59.47;31.13;;;18.10;99.90;;;;;;4161573;28;20033;-76
2021/07/15 03:15:11;;;;;;;54.28;30.38;;;18.10;99.90;;;;;;4163203;28;20040;-77
2021/07/15 03:17:21;;;;;;;48.03;28.98;;;18.10;99.90;;;;;;4163244;28;20029;-77
2021/07/15 03:19:22;;;;;;;52.10;25.48;;;18.20;99.90;;;;;;4153711;28;20026;-77
2021/07/15 03:21:24;;;;;;;41.40;21.48;;;18.10;99.90;;;;;;4161858;28;20539;-78
2021/07/15 03:23:27;;;;;;;2.88;2.67;;;18.10;99.90;;;;;;4162034;28;20417;-79
2021/07/15 03:25:28;;;;;;;2.20;2.10;;;18.10;99.90;;;;;;4162830;28;20042;-78
2021/07/15 03:27:31;;;;;;;2.63;2.42;;;18.20;99.90;;;;;;4161467;28;20279;-78
2021/07/15 03:29:34;;;;;;;3.03;2.80;;;18.10;99.90;;;;;;4161966;28;20104;-79
2021/07/15 03:31:35;;;;;;;3.60;3.38;;;18.10;99.90;;;;;;4160755;28;20053;-78
2021/07/15 03:33:38;;;;;;;5.38;2.78;;;18.00;99.90;;;;;;4160715;28;20531;-78
2021/07/15 03:35:41;;;;;;;1.95;1.85;;;18.00;99.90;;;;;;4162269;28;20034;-78
2021/07/15 03:37:43;;;;;;;3.95;3.58;;;18.10;99.90;;;;;;4162457;28;20033;-79
2021/07/15 03:39:48;;;;;;;3.15;2.88;;;18.10;99.90;;;;;;4162026;28;20041;-78
2021/07/15 03:41:50;;;;;;;5.70;3.08;;;18.10;99.90;;;;;;4161013;28;20053;-77
2021/07/15 03:43:51;;;;;;;7.28;3.42;;;18.00;99.90;;;;;;4161958;28;20362;-79
2021/07/15 03:45:52;;;;;;;2.85;2.67;;;18.10;99.90;;;;;;4161399;28;20064;-79
2021/07/15 03:47:55;;;;;;;2.42;2.33;;;18.10;99.90;;;;;;4163495;28;20120;-79
2021/07/15 03:49:58;;;;;;;4.55;2.42;;;18.00;99.90;;;;;;4162578;28;20125;-79
2021/07/15 03:51:59;;;;;;;2.10;1.92;;;18.00;99.90;;;;;;4165516;28;20033;-80
2021/07/15 03:54:01;;;;;;;3.13;3.00;;;18.00;99.90;;;;;;4166420;28;20087;-80
2021/07/15 03:56:04;;;;;;;2.55;2.35;;;18.10;99.90;;;;;;4165109;28;20041;-80
2021/07/15 03:58:07;;;;;;;2.03;1.93;;;18.00;99.90;;;;;;4181492;28;20119;-80
2021/07/15 04:00:08;;;;;;;2.53;2.42;;;18.10;99.90;;;;;;4166357;28;20045;-78
2021/07/15 04:02:11;;;;;;;3.50;3.28;;;18.00;99.90;;;;;;4166877;28;20485;-80
2021/07/15 04:04:13;;;;;;;;;;;18.00;99.90;;;;;;4165327;28;20048;-81
2021/07/15 04:06:16;;;;;;;4.10;3.28;;;18.00;99.90;;;;;;4181765;28;19951;-82
2021/07/15 04:08:19;;;;;;;1.25;1.25;;;18.00;99.90;;;;;;4163626;28;20090;-82
2021/07/15 04:10:21;;;;;;;1.27;1.20;;;18.00;99.90;;;;;;4166500;28;20030;-80
2021/07/15 04:12:24;;;;;;;3.73;3.47;;;18.00;99.90;;;;;;4165051;28;20033;-80
2021/07/15 04:14:39;;;;;;;3.08;2.88;;;18.00;99.90;;;;;;4164516;28;20398;-81
2021/07/15 04:16:55;;;;;;;2.53;2.33;;;18.00;99.90;;;;;;4159095;28;20121;-80
2021/07/15 04:18:59;;;;;;;2.17;1.88;;;18.10;99.90;;;;;;4147478;28;20033;-80
2021/07/15 04:20:59;;;;;;;1.95;1.85;;;18.00;99.90;;;;;;4149356;28;20489;-79
2021/07/15 04:23:01;;;;;;;1.83;1.75;;;18.10;99.90;;;;;;4148276;28;20180;-79
2021/07/15 04:25:03;;;;;;;1.35;1.35;;;18.00;99.90;;;;;;4165333;28;20029;-78
2021/07/15 04:27:05;;;;;;;5.40;2.47;;;18.00;99.90;;;;;;4164386;28;20504;-78
2021/07/15 04:29:07;;;;;;;1.95;1.85;;;18.00;99.90;;;;;;4165937;28;20049;-78
2021/07/15 04:31:15;;;;;;;2.22;2.08;;;18.00;99.90;;;;;;4166081;28;20045;-79
2021/07/15 04:33:16;;;;;;;1.75;1.65;;;18.00;99.90;;;;;;4165007;28;20029;-81
2021/07/15 04:35:18;;;;;;;2.55;2.45;;;18.00;99.90;;;;;;4164833;28;20033;-81
2021/07/15 04:37:20;;;;;;;1.42;1.42;;;18.00;99.90;;;;;;4165797;28;20419;-81
2021/07/15 04:39:23;;;;;;;3.65;2.00;;;18.00;99.90;;;;;;4164147;28;20026;-79
2021/07/15 04:41:25;;;;;;;2.30;2.10;;;18.00;99.90;;;;;;4165474;28;20048;-82
2021/07/15 04:43:28;;;;;;;1.70;1.67;;;18.10;99.90;;;;;;4166235;28;20061;-80
2021/07/15 04:45:30;;;;;;;2.25;2.15;;;18.10;99.90;;;;;;4156190;28;20056;-81
2021/07/15 04:47:31;;;;;;;4.03;3.67;;;18.10;99.90;;;;;;4164302;28;20045;-81
2021/07/15 04:49:33;;;;;;;8.02;3.25;;;18.10;99.90;;;;;;4141120;28;20042;-82
2021/07/15 04:51:39;;;;;;;2.78;2.03;;;18.10;99.90;;;;;;4178770;28;20029;-81
2021/07/15 04:53:41;;;;;;;2.13;2.03;;;18.10;99.90;;;;;;4155785;28;20170;-81
2021/07/15 04:55:43;;;;;;;1.98;1.88;;;18.10;99.90;;;;;;4165275;28;20481;-81
2021/07/15 04:57:44;;;;;;;1.67;1.43;;;18.20;99.90;;;;;;4166528;28;20029;-82
2021/07/15 04:59:45;;;;;;;2.88;2.67;;;18.20;99.90;;;;;;4152857;28;20312;-82
2021/07/15 05:01:45;;;;;;;3.47;2.60;;;18.20;99.90;;;;;;4146804;28;20448;-81
2021/07/15 05:03:47;;;;;;;1.60;1.60;;;18.20;99.90;;;;;;4153119;28;20037;-81
2021/07/15 05:05:48;;;;;;;3.80;1.88;;;18.20;99.90;;;;;;4169334;28;20041;-80
2021/07/15 05:07:48;;;;;;;1.85;1.75;;;18.20;99.90;;;;;;4165537;28;20032;-81
2021/07/15 05:09:49;;;;;;;3.70;1.92;;;18.30;99.90;;;;;;4157304;28;20041;-82
2021/07/15 05:11:51;;;;;;;2.13;2.00;;;18.20;99.90;;;;;;4169260;28;20037;-81
2021/07/15 05:13:52;;;;;;;1.52;1.40;;;18.20;99.90;;;;;;4158485;28;20034;-81
2021/07/15 05:15:54;;;;;;;2.10;1.90;;;18.30;99.90;;;;;;4147366;28;20057;-81
2021/07/15 05:17:54;;;;;;;1.33;1.30;;;18.30;99.90;;;;;;4155627;28;20556;-81
2021/07/15 05:19:55;;;;;;;1.35;1.35;;;18.30;99.90;;;;;;4148464;28;20037;-81
2021/07/15 05:21:55;;;;;;;1.75;1.65;;;18.30;99.90;;;;;;4164147;28;20033;-80
2021/07/15 05:23:56;;;;;;;1.45;1.45;;;18.30;99.90;;;;;;4146788;28;20038;-81
2021/07/15 05:25:57;;;;;;;1.50;1.50;;;18.30;99.90;;;;;;4165006;28;20038;-82
2021/07/15 05:27:57;;;;;;;1.52;1.45;;;18.30;99.90;;;;;;4163471;28;20505;-79
2021/07/15 05:29:59;;;;;;;2.95;1.92;;;18.40;99.90;;;;;;4164736;28;20044;-80
2021/07/15 05:32:01;;;;;;;2.22;2.13;;;18.30;99.90;;;;;;4160624;28;20419;-80
2021/07/15 05:34:02;;;;;;;2.35;2.25;;;18.30;99.90;;;;;;4166352;28;20033;-81
2021/07/15 05:36:02;;;;;;;9.27;3.60;;;18.30;99.90;;;;;;4164989;28;20647;-80
2021/07/15 05:38:04;;;;;;;1.88;1.80;;;18.30;99.90;;;;;;4170317;28;20176;-81
2021/07/15 05:40:05;;;;;;;3.88;3.55;;;18.30;99.90;;;;;;4174720;28;20028;-80
2021/07/15 05:42:06;;;;;;;3.00;2.72;;;18.30;99.90;;;;;;4169746;28;20033;-80
2021/07/15 05:44:07;;;;;;;2.85;2.67;;;18.20;99.90;;;;;;4167301;28;20405;-81
2021/07/15 05:46:08;;;;;;;6.07;4.05;;;18.30;99.90;;;;;;4175427;28;20053;-80
2021/07/15 05:48:08;;;;;;;9.88;4.13;;;18.30;99.90;;;;;;4173185;28;20103;-80
2021/07/15 05:50:09;;;;;;;3.40;3.17;;;18.40;99.90;;;;;;4164181;28;20403;-80
2021/07/15 05:52:11;;;;;;;3.88;3.58;;;18.30;99.90;;;;;;4194999;28;20033;-81
2021/07/15 05:54:13;;;;;;;3.83;3.43;;;18.30;99.90;;;;;;4173773;28;20040;-81
2021/07/15 05:56:14;;;;;;;4.68;3.88;;;18.20;99.90;;;;;;4176606;28;20033;-80
2021/07/15 05:58:15;;;;;;;2.88;2.72;;;18.30;99.90;;;;;;4173371;28;20076;-80
2021/07/15 06:00:18;;;;;;;3.65;3.33;;;18.30;99.90;;;;;;4172885;28;20041;-80
2021/07/15 06:02:18;;;;;;;3.17;2.88;;;18.30;99.90;;;;;;4163648;28;20034;-80
2021/07/15 06:04:19;;;;;;;2.95;2.75;;;18.30;99.90;;;;;;4168402;28;20719;-80
2021/07/15 06:06:19;;;;;;;5.20;4.28;;;18.20;99.90;;;;;;4166062;28;20041;-80
2021/07/15 06:08:20;;;;;;;4.30;3.08;;;18.20;99.90;;;;;;4162159;28;20080;-79
2021/07/15 06:10:21;;;;;;;3.33;3.13;;;18.30;99.90;;;;;;4172683;28;20040;-80
2021/07/15 06:12:22;;;;;;;6.40;4.50;;;18.20;99.90;;;;;;4175402;28;20414;-82
2021/07/15 06:14:22;;;;;;;3.13;2.92;;;18.20;99.90;;;;;;4188167;28;20037;-80
2021/07/15 06:16:23;;;;;;;3.33;3.13;;;18.30;99.90;;;;;;4165398;28;20030;-78
2021/07/15 06:18:24;;;;;;;3.88;3.58;;;18.20;99.90;;;;;;4175357;28;20056;-81
2021/07/15 06:20:24;;;;;;;4.70;4.35;;;18.20;99.90;;;;;;4176445;28;20028;-81
2021/07/15 06:22:25;;;;;;;13.38;4.65;;;18.20;99.90;;;;;;4179401;28;20044;-80
2021/07/15 06:24:26;;;;;;;7.40;4.10;;;18.20;99.90;;;;;;4175343;28;20044;-79
2021/07/15 06:26:26;;;;;;;4.97;4.55;;;18.10;99.90;;;;;;4167443;28;20424;-81
2021/07/15 06:28:27;;;;;;;3.33;3.15;;;18.10;99.90;;;;;;4184405;28;20051;-80
2021/07/15 06:30:29;;;;;;;8.07;2.70;;;18.10;99.90;;;;;;4174059;28;20041;-81
2021/07/15 06:32:29;;;;;;;3.55;2.95;;;18.20;99.90;;;;;;4175388;28;20083;-81
2021/07/15 06:34:30;;;;;;;3.80;3.60;;;18.20;99.90;;;;;;4182967;28;20075;-82
2021/07/15 06:36:33;;;;;;;1.90;1.80;;;18.10;99.90;;;;;;4170809;28;20430;-82
2021/07/15 06:38:36;;;;;;;3.53;3.33;;;18.10;99.90;;;;;;4177055;28;20496;-82
2021/07/15 06:40:37;;;;;;;2.72;2.53;;;18.00;99.90;;;;;;4173011;28;20045;-82
2021/07/15 06:42:39;;;;;;;3.05;2.85;;;18.00;99.90;;;;;;4172464;28;20036;-81
2021/07/15 06:44:40;;;;;;;2.22;2.13;;;17.90;99.90;;;;;;4188118;28;20186;-82
2021/07/15 06:46:41;;;;;;;3.83;3.17;;;17.90;99.90;;;;;;4188387;28;20031;-82
2021/07/15 06:48:41;;;;;;;7.05;4.30;;;17.90;99.90;;;;;;4172291;28;20056;-81
2021/07/15 06:50:43;;;;;;;4.65;4.35;;;17.90;99.90;;;;;;4166153;28;20075;-81
2021/07/15 06:52:45;;;;;;;3.10;2.88;;;17.90;99.90;;;;;;4168668;28;20033;-81
2021/07/15 06:54:45;;;;;;;2.22;2.13;;;17.90;99.90;;;;;;4170312;28;20033;-81
2021/07/15 06:56:46;;;;;;;4.38;3.97;;;17.80;99.90;;;;;;4161888;28;20389;-82
2021/07/15 06:58:47;;;;;;;3.85;2.75;;;17.90;99.90;;;;;;4172024;28;20041;-80
2021/07/15 07:00:49;;;;;;;2.75;2.65;;;17.90;99.90;;;;;;4174566;28;20430;-82
2021/07/15 07:02:49;;;;;;;1.73;1.65;;;17.80;99.90;;;;;;4173724;28;20048;-82
2021/07/15 07:04:50;;;;;;;4.15;2.85;;;17.80;99.90;;;;;;4172330;28;20480;-79
2021/07/15 07:06:51;;;;;;;2.95;2.55;;;17.70;99.90;;;;;;4166698;28;20428;-81
2021/07/15 07:08:51;;;;;;;2.50;2.40;;;17.80;99.90;;;;;;4173996;28;20037;-81
2021/07/15 07:10:52;;;;;;;9.90;4.03;;;17.70;99.90;;;;;;4174657;28;20566;-83
2021/07/15 07:12:52;;;;;;;2.17;2.03;;;17.70;99.90;;;;;;4175350;28;20079;-82
2021/07/15 07:14:53;;;;;;;2.13;2.03;;;17.70;99.90;;;;;;4154803;28;20044;-81
2021/07/15 07:16:54;;;;;;;8.13;2.88;;;17.80;99.90;;;;;;4163790;28;20401;-80
2021/07/15 07:18:54;;;;;;;1.48;1.48;;;17.80;99.90;;;;;;4161767;28;20370;-82
2021/07/15 07:20:55;;;;;;;2.05;1.95;;;17.80;99.90;;;;;;4165599;28;20385;-83
2021/07/15 07:22:56;;;;;;;1.88;1.65;;;17.80;99.90;;;;;;4164877;28;20041;-82
2021/07/15 07:24:57;;;;;;;18.02;2.17;;;17.80;99.90;;;;;;4165926;28;20049;-82
2021/07/15 07:26:57;;;;;;;3.88;3.03;;;17.80;99.90;;;;;;4161569;28;20125;-82
2021/07/15 07:28:58;;;;;;;1.55;1.55;;;17.90;99.90;;;;;;4162329;28;20042;-81
2021/07/15 07:30:59;;;;;;;2.55;2.35;;;17.90;99.90;;;;;;4163477;28;20635;-81
2021/07/15 07:32:59;;;;;;;2.03;1.92;;;17.90;99.90;;;;;;4167788;28;20030;-86
2021/07/15 07:35:00;;;;;;;2.10;2.00;;;17.90;99.90;;;;;;4164332;28;20071;-84
2021/07/15 07:37:01;;;;;;;4.60;4.25;;;17.80;99.90;;;;;;4162987;28;20049;-81
2021/07/15 07:39:02;;;;;;;3.72;2.55;;;17.90;99.90;;;;;;4171030;28;20477;-83
2021/07/15 07:41:04;;;;;;;3.75;2.28;;;17.90;99.90;;;;;;4170492;28;20120;-81
2021/07/15 07:43:05;;;;;;;3.17;2.97;;;17.90;99.90;;;;;;4151446;28;20129;-83
2021/07/15 07:45:08;;;;;;;1.65;1.58;;;17.90;99.90;;;;;;4162061;28;20452;-82
2021/07/15 07:47:10;;;;;;;1.63;1.58;;;17.90;99.90;;;;;;4176359;28;20512;-82
2021/07/15 07:49:11;;;;;;;3.47;3.13;;;17.90;99.90;;;;;;4163744;28;20037;-82
2021/07/15 07:51:12;;;;;;;3.97;2.20;;;18.00;99.90;;;;;;4162486;28;20034;-82
2021/07/15 07:53:13;;;;;;;5.20;3.67;;;18.00;99.90;;;;;;4160904;28;20080;-81
2021/07/15 07:55:14;;;;;;;2.85;2.65;;;18.00;99.90;;;;;;4161972;28;20500;-82
2021/07/15 07:57:15;;;;;;;33.45;4.10;;;18.00;99.90;;;;;;4160141;28;20045;-82
2021/07/15 07:59:16;;;;;;;3.05;2.85;;;18.10;99.90;;;;;;4159928;28;20045;-82
2021/07/15 08:01:17;;;;;;;3.30;2.63;;;18.10;99.90;;;;;;4170347;28;20029;-82
2021/07/15 08:03:18;;;;;;;6.45;5.05;;;18.10;99.90;;;;;;4154681;28;20448;-81
2021/07/15 08:05:22;;;;;;;2.28;2.17;;;18.00;99.90;;;;;;4162894;28;20022;-81
2021/07/15 08:07:23;;;;;;;8.05;4.25;;;18.10;99.90;;;;;;4157772;28;20586;-81
2021/07/15 08:09:25;;;;;;;5.45;1.80;;;18.10;99.90;;;;;;4175354;28;20032;-81
2021/07/15 08:11:28;;;;;;;7.17;4.77;;;18.00;99.90;;;;;;4173749;28;20037;-81
2021/07/15 08:13:28;;;;;;;;;;;18.00;99.90;;;;;;4186654;28;20029;-81
2021/07/15 08:15:29;;;;;;;4.22;3.85;;;18.00;99.90;;;;;;4176340;28;19932;-81
2021/07/15 08:17:30;;;;;;;2.55;2.45;;;17.90;99.90;;;;;;4190907;28;20107;-81
2021/07/15 08:19:30;;;;;;;4.30;3.90;;;17.90;99.90;;;;;;4172984;28;20021;-80
2021/07/15 08:21:31;;;;;;;2.33;2.22;;;18.00;99.90;;;;;;4166937;28;20040;-81
2021/07/15 08:23:32;;;;;;;3.17;2.95;;;18.00;99.90;;;;;;4170107;28;20053;-80
2021/07/15 08:25:33;;;;;;;3.88;3.58;;;18.00;99.90;;;;;;4174297;28;20109;-81
2021/07/15 08:27:33;;;;;;;2.47;2.38;;;18.10;99.90;;;;;;4166961;28;20029;-79
2021/07/15 08:29:34;;;;;;;4.88;3.40;;;18.00;99.90;;;;;;4162634;28;20449;-79
2021/07/15 08:31:35;;;;;;;2.60;2.50;;;18.10;99.90;;;;;;4161629;28;20484;-80
2021/07/15 08:33:35;;;;;;;2.58;2.45;;;18.10;99.90;;;;;;4170700;28;20113;-80
2021/07/15 08:35:36;;;;;;;2.95;2.60;;;18.10;99.90;;;;;;4164736;28;20022;-80
2021/07/15 08:37:37;;;;;;;3.72;3.42;;;18.10;99.90;;;;;;4167033;28;20083;-78
2021/07/15 08:39:39;;;;;;;4.18;3.28;;;18.10;99.90;;;;;;4181900;28;20404;-79
2021/07/15 08:41:39;;;;;;;7.78;2.50;;;18.10;99.90;;;;;;4179503;28;20033;-80
2021/07/15 08:43:40;;;;;;;3.25;2.78;;;18.20;99.90;;;;;;4179174;28;20065;-78
2021/07/15 08:45:43;;;;;;;5.75;3.65;;;18.20;99.90;;;;;;4179155;28;20028;-79
2021/07/15 08:47:44;;;;;;;3.40;3.20;;;18.10;99.90;;;;;;4178055;28;20101;-80
2021/07/15 08:49:45;;;;;;;4.50;4.20;;;18.10;99.90;;;;;;4195616;28;20337;-79
2021/07/15 08:51:48;;;;;;;2.15;2.05;;;18.10;99.90;;;;;;4175917;28;20017;-80
2021/07/15 08:53:49;;;;;;;3.30;3.00;;;18.10;99.90;;;;;;4179940;28;20029;-80
2021/07/15 08:57:50;;;;;;;4.30;4.00;;;18.20;99.90;;;;;;4165481;28;20383;-79
2021/07/15 08:59:50;;;;;;;7.15;4.03;;;18.20;99.90;;;;;;4175929;28;20085;-78
2021/07/15 09:01:52;;;;;;;2.38;2.28;;;18.20;99.90;;;;;;4163859;28;20447;-79
2021/07/15 09:03:54;;;;;;;1.95;1.85;;;18.20;99.90;;;;;;4176142;28;20087;-79
2021/07/15 09:05:54;;;;;;;3.97;3.05;;;18.20;99.90;;;;;;4172321;28;20077;-80
2021/07/15 09:07:55;;;;;;;2.47;2.38;;;18.20;99.90;;;;;;4178153;28;20032;-79
2021/07/15 09:09:56;;;;;;;5.55;5.15;;;18.10;99.90;;;;;;4176901;28;20021;-79
2021/07/15 09:11:57;;;;;;;6.13;2.80;;;18.10;99.90;;;;;;4173584;28;20032;-80
2021/07/15 09:13:58;;;;;;;1.85;1.77;;;18.10;99.90;;;;;;4177817;28;20028;-80
2021/07/15 09:15:59;;;;;;;2.45;2.33;;;18.10;99.90;;;;;;4173879;28;20029;-80
2021/07/15 09:18:00;;;;;;;3.63;2.88;;;18.10;99.90;;;;;;4193353;28;20107;-78
2021/07/15 09:20:29;;;;;;;2.42;2.33;;;18.20;99.90;;;;;;4176591;28;20065;-80
2021/07/15 09:22:30;;;;;;;2.42;2.33;;;18.10;99.90;;;;;;4174066;28;20095;-80
2021/07/15 09:24:42;;;;;;;2.60;2.28;;;18.00;99.90;;;;;;4172932;28;20017;-80
2021/07/15 09:26:43;;;;;;;4.43;3.38;;;18.20;99.90;;;;;;4174461;28;20055;-80
2021/07/15 09:28:43;;;;;;;1.95;1.58;;;18.20;99.90;;;;;;4177849;28;20025;-80
2021/07/15 09:30:44;;;;;;;3.67;3.47;;;18.20;99.90;;;;;;4177974;28;20033;-79
2021/07/15 09:32:56;;;;;;;4.57;4.28;;;18.20;99.90;;;;;;4163348;28;20040;-80
2021/07/15 09:35:06;;;;;;;3.55;3.35;;;18.20;99.90;;;;;;4165125;28;20163;-80
2021/07/15 09:37:12;;;;;;;2.92;2.80;;;18.20;99.90;;;;;;4164527;28;20512;-80
2021/07/15 09:39:18;;;;;;;4.43;2.75;;;18.20;99.90;;;;;;4163440;28;20421;-81
2021/07/15 09:41:19;;;;;;;3.90;2.53;;;18.10;99.90;;;;;;4164510;28;20040;-81
2021/07/15 09:43:41;;;;;;;15.60;2.58;;;18.00;99.90;;;;;;4162864;28;20401;-81
2021/07/15 09:45:43;;;;;;;5.50;4.18;;;17.90;99.90;;;;;;4147958;28;20033;-81
2021/07/15 09:47:44;;;;;;;3.58;2.83;;;17.90;99.90;;;;;;4151881;28;20049;-81
2021/07/15 09:49:44;;;;;;;1.88;1.85;;;17.90;99.90;;;;;;4147254;28;20104;-81
2021/07/15 09:51:46;;;;;;;6.10;3.10;;;17.90;99.90;;;;;;4164288;28;20029;-81
2021/07/15 09:53:48;;;;;;;4.25;2.72;;;17.80;99.90;;;;;;4164760;28;20052;-81
2021/07/15 09:56:00;;;;;;;2.33;2.22;;;17.80;99.90;;;;;;4163267;28;20033;-81
2021/07/15 09:58:01;;;;;;;2.10;2.00;;;17.80;99.90;;;;;;4162741;28;20088;-80
2021/07/15 10:00:03;;;;;;;3.30;2.70;;;17.90;99.90;;;;;;4161469;28;20045;-80
2021/07/15 10:02:04;;;;;;;2.53;2.38;;;17.80;99.90;;;;;;4158300;28;20033;-80
2021/07/15 10:04:04;;;;;;;3.05;2.85;;;17.70;99.90;;;;;;4161672;28;20100;-80
2021/07/15 10:06:06;;;;;;;2.08;1.98;;;17.80;99.90;;;;;;4164225;28;20032;-81
2021/07/15 10:08:09;;;;;;;8.40;2.65;;;17.70;99.90;;;;;;4163206;28;20033;-82
2021/07/15 10:10:18;;;;;;;1.65;1.58;;;17.80;99.90;;;;;;4163733;28;20026;-80
2021/07/15 10:12:25;;;;;;;1.83;1.73;;;17.80;99.90;;;;;;4163359;28;20120;-80
2021/07/15 10:14:37;;;;;;;1.55;1.55;;;17.80;99.90;;;;;;4163742;28;20113;-81
2021/07/15 10:16:41;;;;;;;3.80;2.63;;;17.90;99.90;;;;;;4161494;28;20088;-80
2021/07/15 10:18:49;;;;;;;1.63;1.60;;;17.90;99.90;;;;;;4164230;28;20129;-79
2021/07/15 10:20:56;;;;;;;2.90;2.70;;;17.90;99.90;;;;;;4158973;28;20069;-80
2021/07/15 10:22:57;;;;;;;2.45;2.28;;;18.00;99.90;;;;;;4164105;28;20038;-80
2021/07/15 10:24:57;;;;;;;3.60;3.40;;;18.00;99.90;;;;;;4163459;28;20517;-80
2021/07/15 10:27:06;;;;;;;3.70;3.50;;;17.90;99.90;;;;;;4163115;28;20045;-81
2021/07/15 10:29:08;;;;;;;3.58;3.28;;;17.90;99.90;;;;;;4163392;28;20033;-80
2021/07/15 10:31:09;;;;;;;20.30;4.10;;;17.80;99.90;;;;;;4160606;28;20026;-80
2021/07/15 10:33:11;;;;;;;3.80;3.45;;;17.90;99.90;;;;;;4164037;28;20069;-81
2021/07/15 10:35:12;;;;;;;4.63;4.30;;;17.80;99.90;;;;;;4163328;28;20125;-79
2021/07/15 10:37:14;;;;;;;2.35;2.25;;;17.90;99.90;;;;;;4161068;28;20036;-81